sensor_id;sensor_type;location;lat;lon;timestamp;P1;durP1;ratioP1;P2;durP2;ratioP2
73747;SDS011;62056;52.130;5.428;2022-12-26T00:01:55;7.85;;;5.22;;
73747;SDS011;62056;52.130;5.428;2022-12-26T00:04:22;7.05;;;6.32;;
73747;SDS011;62056;52.130;5.428;2022-12-26T00:07:09;10.30;;;6.55;;
73747;SDS011;62056;52.130;5.428;2022-12-26T00:09:36;9.70;;;6.20;;
73747;SDS011;62056;52.130;5.428;2022-12-26T00:12:02;13.20;;;6.07;;
73747;SDS011;62056;52.130;5.428;2022-12-26T00:14:29;9.70;;;6.65;;
73747;SDS011;62056;52.130;5.428;2022-12-26T00:16:56;9.90;;;7.15;;
73747;SDS011;62056;52.130;5.428;2022-12-26T00:19:22;6.63;;;5.45;;
73747;SDS011;62056;52.130;5.428;2022-12-26T00:21:50;6.33;;;4.83;;
73747;SDS011;62056;52.130;5.428;2022-12-26T00:24:17;14.55;;;7.70;;
73747;SDS011;62056;52.130;5.428;2022-12-26T00:26:44;11.43;;;7.80;;
73747;SDS011;62056;52.130;5.428;2022-12-26T00:29:10;10.88;;;7.63;;
73747;SDS011;62056;52.130;5.428;2022-12-26T00:31:37;9.40;;;7.00;;
73747;SDS011;62056;52.130;5.428;2022-12-26T00:34:03;11.20;;;7.50;;
73747;SDS011;62056;52.130;5.428;2022-12-26T00:36:30;12.32;;;8.60;;
73747;SDS011;62056;52.130;5.428;2022-12-26T00:38:59;12.95;;;7.95;;
73747;SDS011;62056;52.130;5.428;2022-12-26T00:41:27;11.20;;;8.15;;
73747;SDS011;62056;52.130;5.428;2022-12-26T00:43:54;10.90;;;7.70;;
73747;SDS011;62056;52.130;5.428;2022-12-26T00:46:22;9.03;;;6.77;;
73747;SDS011;62056;52.130;5.428;2022-12-26T00:48:49;10.40;;;7.57;;
73747;SDS011;62056;52.130;5.428;2022-12-26T00:51:16;12.93;;;8.80;;
73747;SDS011;62056;52.130;5.428;2022-12-26T00:53:43;9.90;;;7.57;;
73747;SDS011;62056;52.130;5.428;2022-12-26T00:56:10;9.85;;;7.22;;
73747;SDS011;62056;52.130;5.428;2022-12-26T00:58:36;8.80;;;6.57;;
73747;SDS011;62056;52.130;5.428;2022-12-26T01:03:43;13.98;;;8.63;;
73747;SDS011;62056;52.130;5.428;2022-12-26T01:06:11;12.32;;;7.95;;
73747;SDS011;62056;52.130;5.428;2022-12-26T01:08:38;10.20;;;7.35;;
73747;SDS011;62056;52.130;5.428;2022-12-26T01:11:06;13.93;;;8.50;;
73747;SDS011;62056;52.130;5.428;2022-12-26T01:13:35;10.57;;;7.00;;
73747;SDS011;62056;52.130;5.428;2022-12-26T01:16:03;11.50;;;7.70;;
73747;SDS011;62056;52.130;5.428;2022-12-26T01:18:31;9.93;;;5.97;;
73747;SDS011;62056;52.130;5.428;2022-12-26T01:21:02;7.18;;;5.43;;
73747;SDS011;62056;52.130;5.428;2022-12-26T01:23:30;9.00;;;7.07;;
73747;SDS011;62056;52.130;5.428;2022-12-26T01:25:57;9.45;;;6.38;;
73747;SDS011;62056;52.130;5.428;2022-12-26T01:28:44;10.10;;;7.55;;
73747;SDS011;62056;52.130;5.428;2022-12-26T01:31:10;9.23;;;7.38;;
73747;SDS011;62056;52.130;5.428;2022-12-26T01:33:38;11.75;;;8.23;;
73747;SDS011;62056;52.130;5.428;2022-12-26T01:36:04;10.83;;;7.97;;
73747;SDS011;62056;52.130;5.428;2022-12-26T01:38:31;12.55;;;8.70;;
73747;SDS011;62056;52.130;5.428;2022-12-26T01:40:58;10.93;;;7.82;;
73747;SDS011;62056;52.130;5.428;2022-12-26T01:43:56;9.55;;;7.05;;
73747;SDS011;62056;52.130;5.428;2022-12-26T01:46:33;10.80;;;7.85;;
73747;SDS011;62056;52.130;5.428;2022-12-26T01:52:04;17.63;;;11.15;;
73747;SDS011;62056;52.130;5.428;2022-12-26T01:54:34;9.82;;;6.43;;
73747;SDS011;62056;52.130;5.428;2022-12-26T01:57:10;17.55;;;10.00;;
73747;SDS011;62056;52.130;5.428;2022-12-26T01:59:41;17.55;;;10.52;;
73747;SDS011;62056;52.130;5.428;2022-12-26T02:02:10;18.20;;;11.10;;
73747;SDS011;62056;52.130;5.428;2022-12-26T02:04:38;13.02;;;8.40;;
73747;SDS011;62056;52.130;5.428;2022-12-26T02:07:27;14.80;;;10.13;;
73747;SDS011;62056;52.130;5.428;2022-12-26T02:09:54;19.55;;;11.18;;
73747;SDS011;62056;52.130;5.428;2022-12-26T02:15:03;20.80;;;11.27;;
73747;SDS011;62056;52.130;5.428;2022-12-26T02:17:32;18.60;;;10.55;;
73747;SDS011;62056;52.130;5.428;2022-12-26T02:22:47;14.88;;;9.93;;
73747;SDS011;62056;52.130;5.428;2022-12-26T02:25:34;20.13;;;11.23;;
73747;SDS011;62056;52.130;5.428;2022-12-26T02:39:52;20.67;;;11.15;;
73747;SDS011;62056;52.130;5.428;2022-12-26T02:42:51;18.30;;;11.87;;
73747;SDS011;62056;52.130;5.428;2022-12-26T02:48:39;17.60;;;11.43;;
73747;SDS011;62056;52.130;5.428;2022-12-26T02:54:53;17.98;;;11.82;;
73747;SDS011;62056;52.130;5.428;2022-12-26T02:57:57;15.93;;;10.30;;
73747;SDS011;62056;52.130;5.428;2022-12-26T03:00:48;21.10;;;11.70;;
73747;SDS011;62056;52.130;5.428;2022-12-26T03:03:39;13.30;;;9.30;;
73747;SDS011;62056;52.130;5.428;2022-12-26T03:06:28;12.48;;;9.20;;
73747;SDS011;62056;52.130;5.428;2022-12-26T03:15:23;19.73;;;12.35;;
73747;SDS011;62056;52.130;5.428;2022-12-26T03:17:56;18.20;;;12.20;;
73747;SDS011;62056;52.130;5.428;2022-12-26T03:20:32;13.32;;;10.25;;
73747;SDS011;62056;52.130;5.428;2022-12-26T03:23:04;16.52;;;11.45;;
73747;SDS011;62056;52.130;5.428;2022-12-26T03:28:41;15.63;;;10.73;;
73747;SDS011;62056;52.130;5.428;2022-12-26T03:31:10;14.70;;;11.18;;
73747;SDS011;62056;52.130;5.428;2022-12-26T03:33:39;14.43;;;10.07;;
73747;SDS011;62056;52.130;5.428;2022-12-26T03:39:41;13.30;;;9.80;;
73747;SDS011;62056;52.130;5.428;2022-12-26T03:43:11;17.20;;;11.43;;
73747;SDS011;62056;52.130;5.428;2022-12-26T03:49:32;16.75;;;11.60;;
73747;SDS011;62056;52.130;5.428;2022-12-26T03:52:28;15.77;;;10.88;;
73747;SDS011;62056;52.130;5.428;2022-12-26T03:55:35;17.13;;;11.07;;
73747;SDS011;62056;52.130;5.428;2022-12-26T03:58:44;14.90;;;9.57;;
73747;SDS011;62056;52.130;5.428;2022-12-26T04:01:39;11.85;;;9.27;;
73747;SDS011;62056;52.130;5.428;2022-12-26T04:04:27;11.80;;;9.27;;
73747;SDS011;62056;52.130;5.428;2022-12-26T04:07:18;13.32;;;10.07;;
73747;SDS011;62056;52.130;5.428;2022-12-26T04:10:25;13.77;;;9.53;;
73747;SDS011;62056;52.130;5.428;2022-12-26T04:13:19;13.10;;;9.70;;
73747;SDS011;62056;52.130;5.428;2022-12-26T04:16:13;13.02;;;9.65;;
73747;SDS011;62056;52.130;5.428;2022-12-26T04:24:58;9.07;;;8.13;;
73747;SDS011;62056;52.130;5.428;2022-12-26T04:28:15;15.98;;;8.77;;
73747;SDS011;62056;52.130;5.428;2022-12-26T04:31:03;9.70;;;8.32;;
73747;SDS011;62056;52.130;5.428;2022-12-26T04:33:55;8.00;;;7.15;;
73747;SDS011;62056;52.130;5.428;2022-12-26T04:36:51;8.63;;;7.57;;
73747;SDS011;62056;52.130;5.428;2022-12-26T04:39:41;8.83;;;7.93;;
73747;SDS011;62056;52.130;5.428;2022-12-26T04:42:32;9.70;;;8.43;;
73747;SDS011;62056;52.130;5.428;2022-12-26T04:45:19;12.60;;;9.07;;
73747;SDS011;62056;52.130;5.428;2022-12-26T04:47:48;8.90;;;7.93;;
73747;SDS011;62056;52.130;5.428;2022-12-26T04:50:34;8.32;;;6.72;;
73747;SDS011;62056;52.130;5.428;2022-12-26T04:53:01;8.53;;;7.43;;
73747;SDS011;62056;52.130;5.428;2022-12-26T04:55:29;8.88;;;7.25;;
73747;SDS011;62056;52.130;5.428;2022-12-26T04:57:58;9.32;;;8.38;;
73747;SDS011;62056;52.130;5.428;2022-12-26T05:00:25;14.18;;;8.85;;
73747;SDS011;62056;52.130;5.428;2022-12-26T05:02:53;10.52;;;8.82;;
73747;SDS011;62056;52.130;5.428;2022-12-26T05:05:45;12.30;;;9.40;;
73747;SDS011;62056;52.130;5.428;2022-12-26T05:08:37;12.07;;;8.63;;
73747;SDS011;62056;52.130;5.428;2022-12-26T05:11:25;10.55;;;9.18;;
73747;SDS011;62056;52.130;5.428;2022-12-26T05:13:53;12.68;;;9.50;;
73747;SDS011;62056;52.130;5.428;2022-12-26T05:16:20;12.68;;;9.38;;
73747;SDS011;62056;52.130;5.428;2022-12-26T05:19:08;15.00;;;11.10;;
73747;SDS011;62056;52.130;5.428;2022-12-26T05:21:54;18.15;;;10.25;;
73747;SDS011;62056;52.130;5.428;2022-12-26T05:24:40;22.50;;;12.05;;
73747;SDS011;62056;52.130;5.428;2022-12-26T05:27:31;13.73;;;8.70;;
73747;SDS011;62056;52.130;5.428;2022-12-26T05:30:20;16.23;;;10.52;;
73747;SDS011;62056;52.130;5.428;2022-12-26T05:32:47;17.30;;;12.13;;
73747;SDS011;62056;52.130;5.428;2022-12-26T05:35:33;18.52;;;11.23;;
73747;SDS011;62056;52.130;5.428;2022-12-26T05:38:00;12.95;;;8.27;;
73747;SDS011;62056;52.130;5.428;2022-12-26T05:40:28;15.60;;;11.27;;
73747;SDS011;62056;52.130;5.428;2022-12-26T05:42:54;17.35;;;10.20;;
73747;SDS011;62056;52.130;5.428;2022-12-26T05:45:21;13.30;;;9.30;;
73747;SDS011;62056;52.130;5.428;2022-12-26T05:47:48;14.40;;;9.45;;
73747;SDS011;62056;52.130;5.428;2022-12-26T05:50:17;13.98;;;9.80;;
73747;SDS011;62056;52.130;5.428;2022-12-26T05:52:44;9.40;;;8.10;;
73747;SDS011;62056;52.130;5.428;2022-12-26T05:55:10;12.25;;;8.15;;
73747;SDS011;62056;52.130;5.428;2022-12-26T05:57:37;12.47;;;8.90;;
73747;SDS011;62056;52.130;5.428;2022-12-26T06:00:03;6.80;;;5.55;;
73747;SDS011;62056;52.130;5.428;2022-12-26T06:02:30;9.75;;;8.80;;
73747;SDS011;62056;52.130;5.428;2022-12-26T06:04:57;9.85;;;8.50;;
73747;SDS011;62056;52.130;5.428;2022-12-26T06:07:24;10.00;;;7.50;;
73747;SDS011;62056;52.130;5.428;2022-12-26T06:09:51;8.97;;;7.87;;
73747;SDS011;62056;52.130;5.428;2022-12-26T06:12:17;7.50;;;6.70;;
73747;SDS011;62056;52.130;5.428;2022-12-26T06:14:44;7.15;;;6.45;;
73747;SDS011;62056;52.130;5.428;2022-12-26T06:17:10;6.43;;;5.82;;
73747;SDS011;62056;52.130;5.428;2022-12-26T06:19:37;7.18;;;5.75;;
73747;SDS011;62056;52.130;5.428;2022-12-26T06:22:11;9.10;;;5.90;;
73747;SDS011;62056;52.130;5.428;2022-12-26T06:24:38;8.15;;;5.85;;
73747;SDS011;62056;52.130;5.428;2022-12-26T06:27:04;6.53;;;5.93;;
73747;SDS011;62056;52.130;5.428;2022-12-26T06:29:31;6.97;;;4.45;;
73747;SDS011;62056;52.130;5.428;2022-12-26T06:31:58;5.68;;;5.18;;
73747;SDS011;62056;52.130;5.428;2022-12-26T06:34:24;7.30;;;4.33;;
73747;SDS011;62056;52.130;5.428;2022-12-26T06:36:52;5.00;;;4.47;;
73747;SDS011;62056;52.130;5.428;2022-12-26T06:39:21;5.20;;;4.70;;
73747;SDS011;62056;52.130;5.428;2022-12-26T06:41:48;5.57;;;5.03;;
73747;SDS011;62056;52.130;5.428;2022-12-26T06:44:14;4.57;;;4.18;;
73747;SDS011;62056;52.130;5.428;2022-12-26T06:46:44;5.43;;;4.40;;
73747;SDS011;62056;52.130;5.428;2022-12-26T06:49:11;4.90;;;3.88;;
73747;SDS011;62056;52.130;5.428;2022-12-26T06:51:37;4.85;;;4.30;;
73747;SDS011;62056;52.130;5.428;2022-12-26T06:54:04;4.07;;;3.65;;
73747;SDS011;62056;52.130;5.428;2022-12-26T06:56:31;4.63;;;3.92;;
73747;SDS011;62056;52.130;5.428;2022-12-26T06:58:59;5.27;;;3.63;;
73747;SDS011;62056;52.130;5.428;2022-12-26T07:01:28;5.68;;;3.97;;
73747;SDS011;62056;52.130;5.428;2022-12-26T07:03:57;6.13;;;3.97;;
73747;SDS011;62056;52.130;5.428;2022-12-26T07:06:33;5.90;;;3.88;;
73747;SDS011;62056;52.130;5.428;2022-12-26T07:09:03;3.80;;;3.47;;
73747;SDS011;62056;52.130;5.428;2022-12-26T07:11:34;3.27;;;2.97;;
73747;SDS011;62056;52.130;5.428;2022-12-26T07:14:02;4.85;;;3.90;;
73747;SDS011;62056;52.130;5.428;2022-12-26T07:16:30;4.68;;;3.90;;
73747;SDS011;62056;52.130;5.428;2022-12-26T07:18:57;4.18;;;3.78;;
73747;SDS011;62056;52.130;5.428;2022-12-26T07:21:24;3.85;;;3.45;;
73747;SDS011;62056;52.130;5.428;2022-12-26T07:23:52;3.10;;;2.00;;
73747;SDS011;62056;52.130;5.428;2022-12-26T07:26:22;3.75;;;2.95;;
73747;SDS011;62056;52.130;5.428;2022-12-26T07:28:53;4.07;;;3.35;;
73747;SDS011;62056;52.130;5.428;2022-12-26T07:31:23;5.70;;;3.47;;
73747;SDS011;62056;52.130;5.428;2022-12-26T07:33:51;3.90;;;2.72;;
73747;SDS011;62056;52.130;5.428;2022-12-26T07:36:20;5.27;;;3.10;;
73747;SDS011;62056;52.130;5.428;2022-12-26T07:38:47;2.95;;;2.75;;
73747;SDS011;62056;52.130;5.428;2022-12-26T07:41:13;3.75;;;2.92;;
73747;SDS011;62056;52.130;5.428;2022-12-26T07:43:59;3.90;;;2.72;;
73747;SDS011;62056;52.130;5.428;2022-12-26T07:46:25;2.88;;;2.60;;
73747;SDS011;62056;52.130;5.428;2022-12-26T07:48:52;3.03;;;2.63;;
73747;SDS011;62056;52.130;5.428;2022-12-26T07:51:19;5.88;;;2.45;;
73747;SDS011;62056;52.130;5.428;2022-12-26T07:53:46;4.75;;;2.78;;
73747;SDS011;62056;52.130;5.428;2022-12-26T07:56:13;2.80;;;2.60;;
73747;SDS011;62056;52.130;5.428;2022-12-26T07:58:40;3.78;;;2.47;;
73747;SDS011;62056;52.130;5.428;2022-12-26T08:01:07;2.73;;;2.37;;
73747;SDS011;62056;52.130;5.428;2022-12-26T08:03:34;4.63;;;2.53;;
73747;SDS011;62056;52.130;5.428;2022-12-26T08:06:01;4.85;;;2.08;;
73747;SDS011;62056;52.130;5.428;2022-12-26T08:08:28;2.78;;;1.98;;
73747;SDS011;62056;52.130;5.428;2022-12-26T08:10:58;3.58;;;1.88;;
73747;SDS011;62056;52.130;5.428;2022-12-26T08:13:26;3.70;;;2.10;;
73747;SDS011;62056;52.130;5.428;2022-12-26T08:15:54;7.63;;;2.30;;
73747;SDS011;62056;52.130;5.428;2022-12-26T08:18:20;3.22;;;1.83;;
73747;SDS011;62056;52.130;5.428;2022-12-26T08:20:48;3.53;;;1.80;;
73747;SDS011;62056;52.130;5.428;2022-12-26T08:23:15;1.95;;;1.40;;
73747;SDS011;62056;52.130;5.428;2022-12-26T08:25:42;2.83;;;1.80;;
73747;SDS011;62056;52.130;5.428;2022-12-26T08:28:09;4.18;;;1.50;;
73747;SDS011;62056;52.130;5.428;2022-12-26T08:30:37;3.83;;;1.45;;
73747;SDS011;62056;52.130;5.428;2022-12-26T08:33:05;3.67;;;1.40;;
73747;SDS011;62056;52.130;5.428;2022-12-26T08:35:33;3.80;;;1.15;;
73747;SDS011;62056;52.130;5.428;2022-12-26T08:38:00;1.97;;;1.07;;
73747;SDS011;62056;52.130;5.428;2022-12-26T08:40:27;4.38;;;1.23;;
73747;SDS011;62056;52.130;5.428;2022-12-26T08:43:08;2.95;;;1.10;;
73747;SDS011;62056;52.130;5.428;2022-12-26T08:45:56;5.80;;;1.38;;
73747;SDS011;62056;52.130;5.428;2022-12-26T08:48:23;4.20;;;1.40;;
73747;SDS011;62056;52.130;5.428;2022-12-26T08:50:54;3.00;;;1.00;;
73747;SDS011;62056;52.130;5.428;2022-12-26T08:53:22;3.08;;;1.40;;
73747;SDS011;62056;52.130;5.428;2022-12-26T08:55:49;2.83;;;1.00;;
73747;SDS011;62056;52.130;5.428;2022-12-26T08:58:15;3.20;;;1.08;;
73747;SDS011;62056;52.130;5.428;2022-12-26T09:00:42;2.85;;;0.90;;
73747;SDS011;62056;52.130;5.428;2022-12-26T09:03:09;4.63;;;1.20;;
73747;SDS011;62056;52.130;5.428;2022-12-26T09:05:36;2.58;;;0.85;;
73747;SDS011;62056;52.130;5.428;2022-12-26T09:08:03;3.88;;;1.10;;
73747;SDS011;62056;52.130;5.428;2022-12-26T09:10:29;2.65;;;1.08;;
73747;SDS011;62056;52.130;5.428;2022-12-26T09:12:56;2.95;;;1.02;;
73747;SDS011;62056;52.130;5.428;2022-12-26T09:15:23;2.07;;;0.60;;
73747;SDS011;62056;52.130;5.428;2022-12-26T09:17:49;2.15;;;1.02;;
73747;SDS011;62056;52.130;5.428;2022-12-26T09:20:16;2.70;;;0.80;;
73747;SDS011;62056;52.130;5.428;2022-12-26T09:22:43;3.60;;;1.67;;
73747;SDS011;62056;52.130;5.428;2022-12-26T09:25:16;2.33;;;0.65;;
73747;SDS011;62056;52.130;5.428;2022-12-26T09:27:44;2.53;;;0.80;;
73747;SDS011;62056;52.130;5.428;2022-12-26T09:30:11;6.25;;;0.40;;
73747;SDS011;62056;52.130;5.428;2022-12-26T09:32:39;3.53;;;0.70;;
73747;SDS011;62056;52.130;5.428;2022-12-26T09:35:06;2.55;;;0.60;;
73747;SDS011;62056;52.130;5.428;2022-12-26T09:37:33;2.72;;;0.57;;
73747;SDS011;62056;52.130;5.428;2022-12-26T09:40:00;1.27;;;0.57;;
73747;SDS011;62056;52.130;5.428;2022-12-26T09:42:32;4.53;;;0.73;;
73747;SDS011;62056;52.130;5.428;2022-12-26T09:48:33;2.00;;;0.63;;
73747;SDS011;62056;52.130;5.428;2022-12-26T09:51:09;2.13;;;0.60;;
73747;SDS011;62056;52.130;5.428;2022-12-26T09:53:38;2.20;;;0.50;;
73747;SDS011;62056;52.130;5.428;2022-12-26T09:56:15;2.45;;;0.65;;
73747;SDS011;62056;52.130;5.428;2022-12-26T09:59:06;5.43;;;1.10;;
73747;SDS011;62056;52.130;5.428;2022-12-26T10:01:42;7.13;;;0.90;;
73747;SDS011;62056;52.130;5.428;2022-12-26T10:04:26;3.10;;;0.60;;
73747;SDS011;62056;52.130;5.428;2022-12-26T10:23:53;4.68;;;0.63;;
73747;SDS011;62056;52.130;5.428;2022-12-26T10:26:31;5.40;;;0.70;;
73747;SDS011;62056;52.130;5.428;2022-12-26T10:29:09;6.68;;;1.15;;
73747;SDS011;62056;52.130;5.428;2022-12-26T10:34:26;5.07;;;1.07;;
73747;SDS011;62056;52.130;5.428;2022-12-26T10:42:36;3.22;;;0.52;;
73747;SDS011;62056;52.130;5.428;2022-12-26T10:45:13;5.70;;;0.93;;
73747;SDS011;62056;52.130;5.428;2022-12-26T10:47:51;3.93;;;0.77;;
73747;SDS011;62056;52.130;5.428;2022-12-26T10:50:20;4.75;;;0.70;;
73747;SDS011;62056;52.130;5.428;2022-12-26T10:52:53;8.00;;;1.02;;
73747;SDS011;62056;52.130;5.428;2022-12-26T10:55:24;2.88;;;0.50;;
73747;SDS011;62056;52.130;5.428;2022-12-26T10:57:58;5.15;;;1.00;;
73747;SDS011;62056;52.130;5.428;2022-12-26T11:00:29;4.33;;;0.80;;
73747;SDS011;62056;52.130;5.428;2022-12-26T11:03:03;3.65;;;0.65;;
73747;SDS011;62056;52.130;5.428;2022-12-26T11:05:36;3.25;;;0.63;;
73747;SDS011;62056;52.130;5.428;2022-12-26T11:08:26;4.07;;;0.77;;
73747;SDS011;62056;52.130;5.428;2022-12-26T11:11:23;4.60;;;0.82;;
73747;SDS011;62056;52.130;5.428;2022-12-26T11:17:06;2.50;;;0.63;;
73747;SDS011;62056;52.130;5.428;2022-12-26T11:19:38;1.83;;;0.50;;
73747;SDS011;62056;52.130;5.428;2022-12-26T11:22:20;3.63;;;0.30;;
73747;SDS011;62056;52.130;5.428;2022-12-26T11:25:01;1.75;;;0.40;;
73747;SDS011;62056;52.130;5.428;2022-12-26T11:27:50;4.40;;;0.50;;
73747;SDS011;62056;52.130;5.428;2022-12-26T11:30:23;2.97;;;0.30;;
73747;SDS011;62056;52.130;5.428;2022-12-26T11:35:55;2.60;;;0.50;;
73747;SDS011;62056;52.130;5.428;2022-12-26T11:38:28;4.38;;;0.30;;
73747;SDS011;62056;52.130;5.428;2022-12-26T11:41:11;3.80;;;0.50;;
73747;SDS011;62056;52.130;5.428;2022-12-26T11:46:41;4.35;;;0.57;;
73747;SDS011;62056;52.130;5.428;2022-12-26T11:49:19;2.63;;;0.40;;
73747;SDS011;62056;52.130;5.428;2022-12-26T11:51:50;4.45;;;0.32;;
73747;SDS011;62056;52.130;5.428;2022-12-26T11:54:26;8.23;;;0.50;;
73747;SDS011;62056;52.130;5.428;2022-12-26T11:56:59;4.25;;;0.40;;
73747;SDS011;62056;52.130;5.428;2022-12-26T11:59:27;3.83;;;0.40;;
73747;SDS011;62056;52.130;5.428;2022-12-26T12:04:39;3.53;;;0.50;;
73747;SDS011;62056;52.130;5.428;2022-12-26T12:07:20;7.20;;;0.83;;
73747;SDS011;62056;52.130;5.428;2022-12-26T12:13:09;2.70;;;1.02;;
73747;SDS011;62056;52.130;5.428;2022-12-26T12:25:27;5.95;;;0.38;;
73747;SDS011;62056;52.130;5.428;2022-12-26T12:36:58;1.53;;;0.40;;
73747;SDS011;62056;52.130;5.428;2022-12-26T12:39:52;4.00;;;0.40;;
73747;SDS011;62056;52.130;5.428;2022-12-26T12:48:43;3.30;;;0.50;;
73747;SDS011;62056;52.130;5.428;2022-12-26T13:00:46;6.32;;;0.50;;
73747;SDS011;62056;52.130;5.428;2022-12-26T13:06:41;1.97;;;0.40;;
73747;SDS011;62056;52.130;5.428;2022-12-26T13:09:17;2.78;;;0.30;;
73747;SDS011;62056;52.130;5.428;2022-12-26T13:11:53;2.80;;;0.30;;
73747;SDS011;62056;52.130;5.428;2022-12-26T13:14:25;4.70;;;0.73;;
73747;SDS011;62056;52.130;5.428;2022-12-26T13:17:00;2.85;;;0.47;;
73747;SDS011;62056;52.130;5.428;2022-12-26T13:19:32;2.93;;;0.40;;
73747;SDS011;62056;52.130;5.428;2022-12-26T13:22:10;3.47;;;0.50;;
73747;SDS011;62056;52.130;5.428;2022-12-26T13:24:42;2.33;;;0.30;;
73747;SDS011;62056;52.130;5.428;2022-12-26T13:27:20;2.90;;;0.50;;
73747;SDS011;62056;52.130;5.428;2022-12-26T13:29:51;4.90;;;0.52;;
73747;SDS011;62056;52.130;5.428;2022-12-26T13:32:22;1.37;;;0.30;;
73747;SDS011;62056;52.130;5.428;2022-12-26T13:34:51;4.93;;;0.50;;
73747;SDS011;62056;52.130;5.428;2022-12-26T13:40:26;0.77;;;0.40;;
73747;SDS011;62056;52.130;5.428;2022-12-26T13:42:57;5.43;;;0.80;;
73747;SDS011;62056;52.130;5.428;2022-12-26T13:45:46;1.77;;;0.57;;
73747;SDS011;62056;52.130;5.428;2022-12-26T13:53:57;2.47;;;0.70;;
73747;SDS011;62056;52.130;5.428;2022-12-26T13:58:58;2.93;;;0.40;;
73747;SDS011;62056;52.130;5.428;2022-12-26T14:01:49;2.72;;;0.40;;
73747;SDS011;62056;52.130;5.428;2022-12-26T14:10:27;5.78;;;0.55;;
73747;SDS011;62056;52.130;5.428;2022-12-26T14:16:45;4.18;;;0.82;;
73747;SDS011;62056;52.130;5.428;2022-12-26T14:19:44;6.00;;;0.50;;
73747;SDS011;62056;52.130;5.428;2022-12-26T14:22:38;2.80;;;0.50;;
73747;SDS011;62056;52.130;5.428;2022-12-26T14:29:10;1.23;;;0.30;;
73747;SDS011;62056;52.130;5.428;2022-12-26T14:35:05;3.22;;;0.40;;
73747;SDS011;62056;52.130;5.428;2022-12-26T14:41:04;4.20;;;0.40;;
73747;SDS011;62056;52.130;5.428;2022-12-26T14:43:36;2.23;;;0.40;;
73747;SDS011;62056;52.130;5.428;2022-12-26T14:46:08;5.47;;;0.75;;
73747;SDS011;62056;52.130;5.428;2022-12-26T14:49:23;5.75;;;1.25;;
73747;SDS011;62056;52.130;5.428;2022-12-26T14:52:29;4.90;;;0.60;;
73747;SDS011;62056;52.130;5.428;2022-12-26T14:55:02;7.72;;;0.60;;
73747;SDS011;62056;52.130;5.428;2022-12-26T15:05:30;4.97;;;0.60;;
73747;SDS011;62056;52.130;5.428;2022-12-26T15:10:57;2.10;;;0.45;;
73747;SDS011;62056;52.130;5.428;2022-12-26T15:13:59;2.80;;;0.67;;
73747;SDS011;62056;52.130;5.428;2022-12-26T15:16:47;3.15;;;0.50;;
73747;SDS011;62056;52.130;5.428;2022-12-26T15:25:18;4.82;;;0.60;;
73747;SDS011;62056;52.130;5.428;2022-12-26T15:28:15;2.53;;;0.47;;
73747;SDS011;62056;52.130;5.428;2022-12-26T15:39:18;4.80;;;0.95;;
73747;SDS011;62056;52.130;5.428;2022-12-26T15:41:53;4.80;;;0.90;;
73747;SDS011;62056;52.130;5.428;2022-12-26T15:44:32;2.55;;;0.90;;
73747;SDS011;62056;52.130;5.428;2022-12-26T15:47:13;7.97;;;0.68;;
73747;SDS011;62056;52.130;5.428;2022-12-26T15:55:07;4.67;;;1.10;;
73747;SDS011;62056;52.130;5.428;2022-12-26T15:57:48;4.13;;;1.30;;
73747;SDS011;62056;52.130;5.428;2022-12-26T16:00:35;7.85;;;1.30;;
73747;SDS011;62056;52.130;5.428;2022-12-26T16:03:11;3.63;;;1.20;;
73747;SDS011;62056;52.130;5.428;2022-12-26T16:11:14;3.10;;;1.00;;
73747;SDS011;62056;52.130;5.428;2022-12-26T16:13:54;5.82;;;1.55;;
73747;SDS011;62056;52.130;5.428;2022-12-26T16:18:53;9.52;;;1.33;;
73747;SDS011;62056;52.130;5.428;2022-12-26T16:21:21;4.70;;;1.63;;
73747;SDS011;62056;52.130;5.428;2022-12-26T16:24:10;5.93;;;1.42;;
73747;SDS011;62056;52.130;5.428;2022-12-26T16:26:43;9.98;;;1.20;;
73747;SDS011;62056;52.130;5.428;2022-12-26T16:29:13;7.18;;;1.48;;
73747;SDS011;62056;52.130;5.428;2022-12-26T16:31:44;4.93;;;1.58;;
73747;SDS011;62056;52.130;5.428;2022-12-26T16:34:13;7.33;;;1.97;;
73747;SDS011;62056;52.130;5.428;2022-12-26T16:36:46;5.38;;;0.98;;
73747;SDS011;62056;52.130;5.428;2022-12-26T16:39:20;6.88;;;1.98;;
73747;SDS011;62056;52.130;5.428;2022-12-26T16:42:11;5.50;;;2.35;;
73747;SDS011;62056;52.130;5.428;2022-12-26T16:45:11;6.07;;;1.38;;
73747;SDS011;62056;52.130;5.428;2022-12-26T16:47:42;7.07;;;1.80;;
73747;SDS011;62056;52.130;5.428;2022-12-26T16:50:17;3.08;;;1.20;;
73747;SDS011;62056;52.130;5.428;2022-12-26T16:52:46;5.45;;;2.08;;
73747;SDS011;62056;52.130;5.428;2022-12-26T16:57:58;12.20;;;1.50;;
73747;SDS011;62056;52.130;5.428;2022-12-26T17:00:29;5.20;;;1.70;;
73747;SDS011;62056;52.130;5.428;2022-12-26T17:02:58;3.30;;;1.13;;
73747;SDS011;62056;52.130;5.428;2022-12-26T17:05:27;5.03;;;2.45;;
73747;SDS011;62056;52.130;5.428;2022-12-26T17:07:57;2.97;;;1.80;;
73747;SDS011;62056;52.130;5.428;2022-12-26T17:10:27;6.82;;;1.52;;
73747;SDS011;62056;52.130;5.428;2022-12-26T17:12:56;7.70;;;2.07;;
73747;SDS011;62056;52.130;5.428;2022-12-26T17:15:26;3.70;;;1.70;;
73747;SDS011;62056;52.130;5.428;2022-12-26T17:17:54;5.13;;;1.70;;
73747;SDS011;62056;52.130;5.428;2022-12-26T17:22:54;4.35;;;1.13;;
73747;SDS011;62056;52.130;5.428;2022-12-26T17:25:29;4.90;;;1.80;;
73747;SDS011;62056;52.130;5.428;2022-12-26T17:28:20;4.30;;;1.42;;
73747;SDS011;62056;52.130;5.428;2022-12-26T17:30:48;5.88;;;1.17;;
73747;SDS011;62056;52.130;5.428;2022-12-26T17:33:22;5.60;;;1.25;;
73747;SDS011;62056;52.130;5.428;2022-12-26T17:35:54;4.60;;;1.30;;
73747;SDS011;62056;52.130;5.428;2022-12-26T17:38:43;5.33;;;1.60;;
73747;SDS011;62056;52.130;5.428;2022-12-26T17:41:12;5.03;;;1.67;;
73747;SDS011;62056;52.130;5.428;2022-12-26T17:43:42;3.58;;;1.40;;
73747;SDS011;62056;52.130;5.428;2022-12-26T17:46:10;4.40;;;1.02;;
73747;SDS011;62056;52.130;5.428;2022-12-26T17:48:40;6.10;;;1.50;;
73747;SDS011;62056;52.130;5.428;2022-12-26T17:51:10;3.70;;;1.60;;
73747;SDS011;62056;52.130;5.428;2022-12-26T17:53:41;9.32;;;1.10;;
73747;SDS011;62056;52.130;5.428;2022-12-26T17:56:17;8.82;;;1.75;;
73747;SDS011;62056;52.130;5.428;2022-12-26T17:58:47;4.38;;;1.52;;
73747;SDS011;62056;52.130;5.428;2022-12-26T18:01:14;4.80;;;1.60;;
73747;SDS011;62056;52.130;5.428;2022-12-26T18:03:47;7.70;;;2.80;;
73747;SDS011;62056;52.130;5.428;2022-12-26T18:06:14;5.93;;;1.80;;
73747;SDS011;62056;52.130;5.428;2022-12-26T18:08:42;6.47;;;1.92;;
73747;SDS011;62056;52.130;5.428;2022-12-26T18:11:11;6.78;;;2.38;;
73747;SDS011;62056;52.130;5.428;2022-12-26T18:13:38;4.75;;;1.75;;
73747;SDS011;62056;52.130;5.428;2022-12-26T18:16:05;4.93;;;2.00;;
73747;SDS011;62056;52.130;5.428;2022-12-26T18:18:34;3.28;;;1.30;;
73747;SDS011;62056;52.130;5.428;2022-12-26T18:21:03;4.65;;;1.10;;
73747;SDS011;62056;52.130;5.428;2022-12-26T18:23:31;7.35;;;0.98;;
73747;SDS011;62056;52.130;5.428;2022-12-26T18:25:58;5.25;;;1.10;;
73747;SDS011;62056;52.130;5.428;2022-12-26T18:28:26;10.07;;;1.73;;
73747;SDS011;62056;52.130;5.428;2022-12-26T18:30:54;6.75;;;1.55;;
73747;SDS011;62056;52.130;5.428;2022-12-26T18:33:23;8.93;;;0.98;;
73747;SDS011;62056;52.130;5.428;2022-12-26T18:35:49;5.53;;;1.63;;
73747;SDS011;62056;52.130;5.428;2022-12-26T18:38:17;7.35;;;1.83;;
73747;SDS011;62056;52.130;5.428;2022-12-26T18:40:46;11.03;;;1.87;;
73747;SDS011;62056;52.130;5.428;2022-12-26T18:43:14;6.53;;;2.08;;
73747;SDS011;62056;52.130;5.428;2022-12-26T18:45:40;6.10;;;1.90;;
73747;SDS011;62056;52.130;5.428;2022-12-26T18:48:11;3.70;;;1.30;;
73747;SDS011;62056;52.130;5.428;2022-12-26T18:50:40;10.48;;;2.13;;
73747;SDS011;62056;52.130;5.428;2022-12-26T18:53:09;5.10;;;1.63;;